createdAt,value
2019-01-25T00:00:33.320Z,46.43
2019-01-25T00:03:21.375Z,46.07
2019-01-25T00:06:09.463Z,44.80
2019-01-25T00:08:50.918Z,48.00
2019-01-25T00:11:32.280Z,45.40
2019-01-25T00:14:12.747Z,47.60
2019-01-25T00:16:53.267Z,45.80
2019-01-25T00:19:34.692Z,47.20
2019-01-25T00:22:15.800Z,45.03
2019-01-25T00:24:57.327Z,46.13
2019-01-25T00:27:38.522Z,45.87
2019-01-25T00:30:19.843Z,45.77
2019-01-25T00:33:01.139Z,45.40
2019-01-25T00:35:42.375Z,44.87
2019-01-25T00:38:23.711Z,47.40
2019-01-25T00:41:04.824Z,44.57
2019-01-25T00:43:46.209Z,48.60
2019-01-25T00:46:27.436Z,47.43
2019-01-25T00:49:08.831Z,47.37
2019-01-25T00:51:49.842Z,47.00
2019-01-25T00:54:31.191Z,46.53
2019-01-25T00:57:12.487Z,44.77
2019-01-25T00:59:53.890Z,46.53
2019-01-25T01:02:35.021Z,46.20
2019-01-25T01:05:16.107Z,46.63
2019-01-25T01:07:57.583Z,48.83
2019-01-25T01:10:38.903Z,47.87
2019-01-25T01:13:19.435Z,47.73
2019-01-25T01:16:00.815Z,47.93
2019-01-25T01:18:42.047Z,47.17
2019-01-25T01:21:22.886Z,48.37
2019-01-25T01:24:03.991Z,47.60
2019-01-25T01:26:44.449Z,45.70
2019-01-25T01:29:25.623Z,46.70
2019-01-25T01:32:06.706Z,47.53
2019-01-25T01:34:48.042Z,47.00
2019-01-25T01:37:29.195Z,47.90
2019-01-25T01:40:10.083Z,47.87
2019-01-25T01:42:50.597Z,47.77
2019-01-25T01:45:29.577Z,48.07
2019-01-25T01:48:17.610Z,47.10
2019-01-25T01:51:05.706Z,47.90
2019-01-25T01:53:53.759Z,47.67
2019-01-25T01:56:41.817Z,47.43
2019-01-25T01:59:29.845Z,48.97
2019-01-25T02:02:37.799Z,48.50
2019-01-25T02:05:25.907Z,50.03
2019-01-25T02:08:13.958Z,47.97
2019-01-25T02:10:55.063Z,48.07
2019-01-25T02:13:36.398Z,48.20
2019-01-25T02:16:17.455Z,47.30
2019-01-25T02:18:58.784Z,49.50
2019-01-25T02:21:39.820Z,50.00
2019-01-25T02:24:20.663Z,47.50
2019-01-25T02:27:01.523Z,49.47
2019-01-25T02:29:42.065Z,49.43
2019-01-25T02:32:21.060Z,48.73
2019-01-25T02:35:09.167Z,48.90
2019-01-25T02:37:57.191Z,51.10
2019-01-25T02:40:45.244Z,50.93
2019-01-25T02:43:53.197Z,58.70
2019-01-25T02:46:41.342Z,53.87
2019-01-25T02:49:29.366Z,57.43
2019-01-25T02:52:17.488Z,57.13
2019-01-25T02:55:06.328Z,61.30
2019-01-25T02:57:54.419Z,60.33
2019-01-25T03:00:42.481Z,58.03
2019-01-25T03:03:30.500Z,58.00
2019-01-25T03:06:18.552Z,58.60
2019-01-25T03:12:15.222Z,56.23
2019-01-25T03:18:11.910Z,55.40
2019-01-25T03:20:59.944Z,53.37
2019-01-25T03:23:47.966Z,55.20
2019-01-25T03:26:36.025Z,57.00
2019-01-25T03:29:24.052Z,58.60
2019-01-25T03:32:12.097Z,56.93
2019-01-25T03:35:00.396Z,56.13
2019-01-25T03:38:09.816Z,57.37
2019-01-25T03:40:57.842Z,56.10
2019-01-25T03:43:46.071Z,55.87
2019-01-25T03:46:34.096Z,59.93
2019-01-25T03:49:22.140Z,63.00
2019-01-25T03:52:10.194Z,59.80
2019-01-25T03:54:58.213Z,62.07
2019-01-25T03:57:53.178Z,64.57
2019-01-25T04:00:41.202Z,60.77
2019-01-25T04:03:29.251Z,64.63
2019-01-25T04:06:17.271Z,64.90
2019-01-25T04:09:25.181Z,63.33
2019-01-25T04:12:13.224Z,65.47
2019-01-25T04:18:36.637Z,65.47
2019-01-25T04:21:24.725Z,69.03
2019-01-25T04:24:12.773Z,64.93
2019-01-25T04:27:00.864Z,62.07
2019-01-25T04:29:48.911Z,62.63
2019-01-25T04:32:36.955Z,66.50
2019-01-25T04:35:44.947Z,62.43
2019-01-25T04:38:33.001Z,59.93
2019-01-25T04:41:21.015Z,66.90
2019-01-25T04:44:09.063Z,62.83
2019-01-25T04:46:57.105Z,66.43
2019-01-25T04:49:45.160Z,61.73
2019-01-25T04:52:33.202Z,69.83
2019-01-25T04:58:36.675Z,61.03
2019-01-25T05:01:44.667Z,62.00
2019-01-25T05:07:41.359Z,67.30
2019-01-25T05:10:21.877Z,65.63
2019-01-25T05:13:03.135Z,65.80
2019-01-25T05:15:44.466Z,64.03
2019-01-25T05:18:25.681Z,65.47
2019-01-25T05:21:06.933Z,68.27
2019-01-25T05:23:48.162Z,63.33
2019-01-25T05:26:29.473Z,66.03
2019-01-25T05:29:10.817Z,66.63
2019-01-25T05:31:52.053Z,65.90
2019-01-25T05:34:33.095Z,64.23
2019-01-25T05:37:14.089Z,64.60
2019-01-25T05:39:54.791Z,69.60
2019-01-25T05:42:36.043Z,71.27
2019-01-25T05:45:16.978Z,63.77
2019-01-25T05:47:58.414Z,65.03
2019-01-25T05:50:37.922Z,65.37
2019-01-25T05:53:25.998Z,67.00
2019-01-25T05:56:14.022Z,70.00
2019-01-25T05:59:02.075Z,65.97
2019-01-25T06:01:50.102Z,67.63
2019-01-25T06:04:38.322Z,67.73
2019-01-25T06:07:26.685Z,62.20
2019-01-25T06:10:07.401Z,63.53
2019-01-25T06:12:48.287Z,64.20
2019-01-25T06:15:28.784Z,80.90
2019-01-25T06:18:09.433Z,87.42
2019-01-25T06:20:50.777Z,69.97
2019-01-25T06:23:31.836Z,66.90
2019-01-25T06:26:13.130Z,64.87
2019-01-25T06:28:54.186Z,81.70
2019-01-25T06:31:35.147Z,71.93
2019-01-25T06:34:16.495Z,68.93
2019-01-25T06:36:56.984Z,62.97
2019-01-25T06:39:37.917Z,65.40
2019-01-25T06:42:18.937Z,64.17
2019-01-25T06:44:59.864Z,78.55
2019-01-25T06:47:41.266Z,64.77
2019-01-25T06:50:24.649Z,83.35
2019-01-25T06:53:05.216Z,67.33
2019-01-25T06:55:46.370Z,84.30
2019-01-25T06:58:27.807Z,77.80
2019-01-25T07:01:08.991Z,68.77
2019-01-25T07:03:50.108Z,67.33
2019-01-25T07:06:31.431Z,64.03
2019-01-25T07:09:11.967Z,77.58
2019-01-25T07:11:52.485Z,69.47
2019-01-25T07:14:33.607Z,64.87
2019-01-25T07:17:14.131Z,64.20
2019-01-25T07:19:55.601Z,63.03
2019-01-25T07:22:36.261Z,68.03
2019-01-25T07:25:17.325Z,78.53
2019-01-25T07:27:58.212Z,67.67
2019-01-25T07:30:39.397Z,76.22
2019-01-25T07:33:20.832Z,81.25
2019-01-25T07:36:02.036Z,81.17
2019-01-25T07:38:43.415Z,64.37
2019-01-25T07:41:22.521Z,58.90
2019-01-25T07:44:10.641Z,59.77
2019-01-25T07:46:58.845Z,77.47
2019-01-25T07:49:53.584Z,62.57
2019-01-25T07:52:41.710Z,62.50
2019-01-25T07:55:29.813Z,66.07
2019-01-25T07:58:37.814Z,58.90
2019-01-25T08:01:25.882Z,59.50
2019-01-25T08:04:14.097Z,61.00
2019-01-25T08:07:02.195Z,73.75
2019-01-25T08:10:03.507Z,80.70
2019-01-25T08:12:44.970Z,77.20
2019-01-25T08:15:26.254Z,66.40
2019-01-25T08:18:07.432Z,61.23
2019-01-25T08:20:48.645Z,62.30
2019-01-25T08:23:29.987Z,77.23
2019-01-25T08:26:10.922Z,64.40
2019-01-25T08:28:52.338Z,59.13
2019-01-25T08:31:32.898Z,72.40
2019-01-25T08:34:13.882Z,63.37
2019-01-25T08:36:55.073Z,74.40
2019-01-25T08:39:36.265Z,60.77
2019-01-25T08:42:17.027Z,77.87
2019-01-25T08:44:59.733Z,64.67
2019-01-25T08:47:40.638Z,60.88
2019-01-25T08:50:21.582Z,74.00
2019-01-25T08:53:02.564Z,61.37
2019-01-25T08:55:43.818Z,56.73
2019-01-25T08:58:24.995Z,55.27
2019-01-25T09:01:05.658Z,56.23
2019-01-25T09:03:47.001Z,57.57
2019-01-25T09:06:28.284Z,57.40
2019-01-25T09:09:09.710Z,60.37
2019-01-25T09:11:51.008Z,54.63
2019-01-25T09:14:32.173Z,53.73
2019-01-25T09:17:13.481Z,55.27
2019-01-25T09:19:54.873Z,56.60
2019-01-25T09:22:35.976Z,71.72
2019-01-25T09:25:15.142Z,59.93
2019-01-25T09:28:03.254Z,55.47
2019-01-25T09:30:51.467Z,57.13
2019-01-25T09:33:39.524Z,56.80
2019-01-25T09:36:27.586Z,56.50
2019-01-25T09:39:15.609Z,56.93
2019-01-25T09:42:03.744Z,55.53
2019-01-25T09:45:11.941Z,55.33
2019-01-25T09:47:59.993Z,65.35
2019-01-25T09:51:08.093Z,67.47
2019-01-25T09:53:56.126Z,57.00
2019-01-25T09:56:44.222Z,54.40
2019-01-25T09:59:32.258Z,54.47
2019-01-25T10:02:20.382Z,55.50
2019-01-25T10:05:08.485Z,52.80
2019-01-25T10:07:56.537Z,53.87
2019-01-25T10:10:37.257Z,52.50
2019-01-25T10:13:18.522Z,52.87
2019-01-25T10:15:58.973Z,51.77
2019-01-25T10:18:40.228Z,53.63
2019-01-25T10:21:21.333Z,50.93
2019-01-25T10:24:02.736Z,65.83
2019-01-25T10:26:43.886Z,53.60
2019-01-25T10:29:25.251Z,51.77
2019-01-25T10:32:06.473Z,53.40
2019-01-25T10:34:47.858Z,53.87
2019-01-25T10:37:26.937Z,40.97
2019-01-25T10:40:34.296Z,38.37
2019-01-25T10:43:22.357Z,39.18
2019-01-25T10:46:10.401Z,37.27
2019-01-25T10:48:58.446Z,37.03
2019-01-25T10:51:46.485Z,36.15
2019-01-25T10:54:34.549Z,33.93
2019-01-25T10:57:22.590Z,31.77
2019-01-25T11:03:25.997Z,22.70
2019-01-25T11:06:14.034Z,21.23
2019-01-25T11:09:02.105Z,21.80
2019-01-25T11:11:43.297Z,21.43
2019-01-25T11:14:23.982Z,19.43
2019-01-25T11:17:05.306Z,19.90
2019-01-25T11:19:46.386Z,20.77
2019-01-25T11:22:27.677Z,20.60
2019-01-25T11:25:09.078Z,19.27
2019-01-25T11:27:50.635Z,17.00
2019-01-25T11:30:31.649Z,17.40
2019-01-25T11:33:12.677Z,19.30
2019-01-25T11:35:53.707Z,19.30
2019-01-25T11:38:35.041Z,19.13
2019-01-25T11:41:16.412Z,19.57
2019-01-25T11:43:57.790Z,19.17
2019-01-25T11:46:38.266Z,19.80
2019-01-25T11:49:18.924Z,22.47
2019-01-25T11:52:00.191Z,20.23
2019-01-25T11:54:41.245Z,22.33
2019-01-25T11:57:22.575Z,22.00
2019-01-25T12:00:03.926Z,22.07
2019-01-25T12:02:45.222Z,24.20
2019-01-25T12:05:26.357Z,22.40
2019-01-25T12:08:07.588Z,22.80
2019-01-25T12:10:48.946Z,24.03
2019-01-25T12:13:30.325Z,26.57
2019-01-25T12:16:09.472Z,20.70
2019-01-25T12:18:57.494Z,20.30
2019-01-25T12:21:45.549Z,25.27
2019-01-25T12:24:33.598Z,23.20
2019-01-25T12:27:21.654Z,20.53
2019-01-25T12:33:25.014Z,21.50
2019-01-25T12:36:13.059Z,22.10
2019-01-25T12:39:01.118Z,22.30
2019-01-25T12:41:49.173Z,19.60
2019-01-25T12:44:57.080Z,19.70
2019-01-25T12:47:45.130Z,20.82
2019-01-25T12:50:52.562Z,22.73
2019-01-25T12:53:40.681Z,18.27
2019-01-25T12:56:28.725Z,18.23
2019-01-25T12:59:36.786Z,19.20
2019-01-25T13:02:24.942Z,18.07
2019-01-25T13:08:21.678Z,20.20
2019-01-25T13:11:02.785Z,17.23
2019-01-25T13:13:44.249Z,16.47
2019-01-25T13:16:25.530Z,16.70
2019-01-25T13:19:06.793Z,17.67
2019-01-25T13:21:47.310Z,16.17
2019-01-25T13:24:30.575Z,16.60
2019-01-25T13:27:11.926Z,14.77
2019-01-25T13:29:53.021Z,15.60
2019-01-25T13:32:34.424Z,15.83
2019-01-25T13:35:15.906Z,15.00
2019-01-25T13:37:57.183Z,16.30
2019-01-25T13:40:46.770Z,16.10
2019-01-25T13:43:39.169Z,14.70
2019-01-25T13:46:45.026Z,16.63
2019-01-25T13:49:33.134Z,15.60
2019-01-25T13:52:21.165Z,16.43
2019-01-25T13:58:08.246Z,15.43
2019-01-25T14:00:56.362Z,16.40
2019-01-25T14:03:44.463Z,16.33
2019-01-25T14:06:32.538Z,16.73
2019-01-25T14:09:20.590Z,16.97
2019-01-25T14:12:01.162Z,14.87
2019-01-25T14:14:43.034Z,16.87
2019-01-25T14:17:24.458Z,16.17
2019-01-25T14:20:05.612Z,16.07
2019-01-25T14:22:46.819Z,15.53
2019-01-25T14:25:28.009Z,15.57
2019-01-25T14:28:09.275Z,15.57
2019-01-25T14:30:50.528Z,15.60
2019-01-25T14:33:31.054Z,15.63
2019-01-25T14:36:12.521Z,16.33
2019-01-25T14:38:53.905Z,16.50
2019-01-25T14:41:35.365Z,16.50
2019-01-25T14:44:15.838Z,15.27
2019-01-25T14:46:57.067Z,15.50
2019-01-25T14:49:38.384Z,14.93
2019-01-25T14:52:19.737Z,15.30
2019-01-25T14:55:01.192Z,15.63
2019-01-25T14:57:42.340Z,16.27
2019-01-25T15:00:23.598Z,14.73
2019-01-25T15:03:04.848Z,14.93
2019-01-25T15:05:46.117Z,14.97
2019-01-25T15:08:27.434Z,14.40
2019-01-25T15:11:08.603Z,14.93
2019-01-25T15:13:49.871Z,15.30
2019-01-25T15:16:30.702Z,15.13
2019-01-25T15:19:12.022Z,15.57
2019-01-25T15:21:53.267Z,14.87
2019-01-25T15:24:34.474Z,14.90
2019-01-25T15:27:15.801Z,15.70
2019-01-25T15:29:56.789Z,16.67
2019-01-25T15:32:38.133Z,16.03
2019-01-25T15:35:18.198Z,15.93
2019-01-25T15:38:06.404Z,16.80
2019-01-25T15:40:54.454Z,15.93
2019-01-25T15:43:44.393Z,17.37
2019-01-25T15:46:32.438Z,16.20
2019-01-25T15:49:20.514Z,17.37
2019-01-25T15:52:08.703Z,19.27
2019-01-25T15:54:56.853Z,18.33
2019-01-25T15:57:44.926Z,19.43
2019-01-25T16:00:32.986Z,19.27
2019-01-25T16:03:21.057Z,19.13
2019-01-25T16:06:02.297Z,19.90
2019-01-25T16:08:43.715Z,20.10
2019-01-25T16:11:24.478Z,20.67
2019-01-25T16:14:05.566Z,20.30
2019-01-25T16:16:46.143Z,21.03
2019-01-25T16:19:27.443Z,20.47
2019-01-25T16:22:08.706Z,22.37
2019-01-25T16:24:49.257Z,21.20
2019-01-25T16:27:30.415Z,22.53
2019-01-25T16:30:13.798Z,23.10
2019-01-25T16:32:54.508Z,21.47
2019-01-25T16:35:35.715Z,21.43
2019-01-25T16:38:16.876Z,29.02
2019-01-25T16:40:58.075Z,29.98
2019-01-25T16:43:38.630Z,28.92
2019-01-25T16:46:19.366Z,30.02
2019-01-25T16:49:00.493Z,30.62
2019-01-25T16:51:41.785Z,25.37
2019-01-25T16:54:22.816Z,23.60
2019-01-25T16:57:03.897Z,23.57
2019-01-25T16:59:45.104Z,24.40
2019-01-25T17:02:26.312Z,24.57
2019-01-25T17:05:07.681Z,24.37
2019-01-25T17:07:49.021Z,23.10
2019-01-25T17:10:30.314Z,23.23
2019-01-25T17:13:11.515Z,21.93
2019-01-25T17:15:50.594Z,23.00
2019-01-25T17:18:38.685Z,22.40
2019-01-25T17:21:26.792Z,23.13
2019-01-25T17:24:14.907Z,22.50
2019-01-25T17:27:03.506Z,21.40
2019-01-25T17:29:51.553Z,23.50
2019-01-25T17:32:39.629Z,22.77
2019-01-25T17:35:27.827Z,21.53
2019-01-25T17:38:15.992Z,21.13
2019-01-25T17:41:04.145Z,21.10
2019-01-25T17:43:52.214Z,21.77
2019-01-25T17:46:40.234Z,20.70
2019-01-25T17:49:28.293Z,22.60
2019-01-25T17:52:16.406Z,20.63
2019-01-25T17:58:19.780Z,21.40
2019-01-25T18:01:07.896Z,20.83
2019-01-25T18:03:56.059Z,21.43
2019-01-25T18:06:44.163Z,21.73
2019-01-25T18:09:32.124Z,22.97
2019-01-25T18:15:25.737Z,21.87
2019-01-25T18:18:06.870Z,21.50
2019-01-25T18:20:48.062Z,20.53
2019-01-25T18:23:29.420Z,21.27
2019-01-25T18:25:58.277Z,21.67
2019-01-25T18:31:44.957Z,21.00
2019-01-25T18:34:33.102Z,19.90
2019-01-25T18:37:41.078Z,19.27
2019-01-25T18:43:43.941Z,19.80
2019-01-25T18:46:32.066Z,19.87
2019-01-25T18:49:20.108Z,21.20
2019-01-25T18:52:08.339Z,19.67
2019-01-25T18:54:56.957Z,20.93
2019-01-25T18:58:06.122Z,20.67
2019-01-25T19:01:14.110Z,18.23
2019-01-25T19:04:02.234Z,20.43
2019-01-25T19:06:50.385Z,20.10
2019-01-25T19:09:38.555Z,22.10
2019-01-25T19:12:20.433Z,20.30
2019-01-25T19:15:04.437Z,20.37
2019-01-25T19:17:45.292Z,19.77
2019-01-25T19:20:26.764Z,20.33
2019-01-25T19:23:08.228Z,19.53
2019-01-25T19:25:48.877Z,18.80
2019-01-25T19:28:30.134Z,19.33
2019-01-25T19:31:11.310Z,19.57
2019-01-25T19:33:52.859Z,19.03
2019-01-25T19:36:33.461Z,20.83
2019-01-25T19:39:14.765Z,19.30
2019-01-25T19:41:43.580Z,20.90
2019-01-25T19:44:51.502Z,20.53
2019-01-25T19:47:39.703Z,20.87
2019-01-25T19:50:27.909Z,21.30
2019-01-25T19:53:16.037Z,21.53
2019-01-25T19:56:23.963Z,20.50
2019-01-25T19:59:32.019Z,21.67
2019-01-25T20:02:20.217Z,20.77
2019-01-25T20:08:23.813Z,20.27
2019-01-25T20:11:03.002Z,22.00
2019-01-25T20:13:51.074Z,19.40
2019-01-25T20:16:58.973Z,21.60
2019-01-25T20:19:47.236Z,21.50
2019-01-25T20:22:35.330Z,19.77
2019-01-25T20:25:23.398Z,20.10
2019-01-25T20:28:12.019Z,20.10
2019-01-25T20:31:21.450Z,20.43
2019-01-25T20:34:09.622Z,19.53
2019-01-25T20:37:17.531Z,18.07
2019-01-25T20:40:24.954Z,20.57
2019-01-25T20:46:27.081Z,21.20
2019-01-25T20:49:15.127Z,21.07
2019-01-25T20:58:03.521Z,19.63
2019-01-25T21:00:51.768Z,18.03
2019-01-25T21:04:01.430Z,19.23
2019-01-25T21:06:49.586Z,19.27
2019-01-25T21:09:37.806Z,20.13
2019-01-25T21:12:19.134Z,20.63
2019-01-25T21:15:00.103Z,18.70
2019-01-25T21:17:41.309Z,18.60
2019-01-25T21:20:22.378Z,20.20
2019-01-25T21:23:03.726Z,19.90
2019-01-25T21:25:45.103Z,19.70
2019-01-25T21:28:26.459Z,20.03
2019-01-25T21:31:07.882Z,20.57
2019-01-25T21:33:49.125Z,20.87
2019-01-25T21:36:30.378Z,17.80
2019-01-25T21:39:11.515Z,18.13
2019-01-25T21:41:52.644Z,18.00
2019-01-25T21:44:33.782Z,20.57
2019-01-25T21:47:15.063Z,19.30
2019-01-25T21:49:56.487Z,18.63
2019-01-25T21:52:37.194Z,18.40
2019-01-25T21:55:18.510Z,19.77
2019-01-25T21:58:05.503Z,18.10
2019-01-25T22:03:57.844Z,17.33
2019-01-25T22:07:06.009Z,18.00
2019-01-25T22:09:54.106Z,19.53
2019-01-25T22:12:35.357Z,19.70
2019-01-25T22:15:16.614Z,18.10
2019-01-25T22:17:58.794Z,18.43
2019-01-25T22:20:39.761Z,19.30
2019-01-25T22:23:21.013Z,20.17
2019-01-25T22:26:02.272Z,18.57
2019-01-25T22:28:43.590Z,18.83
2019-01-25T22:31:24.825Z,19.63
2019-01-25T22:34:05.476Z,19.73
2019-01-25T22:36:46.790Z,21.73
2019-01-25T22:39:28.014Z,20.33
2019-01-25T22:42:09.209Z,21.30
2019-01-25T22:44:50.451Z,21.80
2019-01-25T22:47:31.683Z,22.00
2019-01-25T22:50:12.724Z,20.97
2019-01-25T22:52:54.033Z,21.27
2019-01-25T22:55:35.124Z,22.27
2019-01-25T22:58:16.235Z,21.70
2019-01-25T23:00:56.741Z,21.40
2019-01-25T23:03:38.027Z,21.83
2019-01-25T23:06:21.381Z,21.77
2019-01-25T23:09:28.764Z,20.50
2019-01-25T23:12:10.123Z,23.27
2019-01-25T23:14:50.593Z,22.27
2019-01-25T23:17:31.793Z,23.03
2019-01-25T23:22:54.497Z,21.37
2019-01-25T23:25:35.850Z,23.47
2019-01-25T23:28:17.074Z,23.90
2019-01-25T23:30:58.437Z,25.03
2019-01-25T23:33:39.753Z,25.83
2019-01-25T23:36:20.954Z,25.00
2019-01-25T23:39:02.228Z,26.93
2019-01-25T23:41:43.413Z,26.03
2019-01-25T23:44:24.771Z,26.63
2019-01-25T23:47:06.105Z,27.13
2019-01-25T23:49:47.230Z,28.33
2019-01-25T23:52:28.438Z,29.00
2019-01-25T23:55:09.813Z,30.93
2019-01-25T23:57:51.062Z,30.23
